Other Surface Observations
Issued by NWS Missoula, MT

Home | Current Version | Previous Version | Text Only | Print | Product List | Glossary On
Versions: 1 2 3 4 5 6 7 8 9 10 11 12 13 14 15 16 17 18 19 20 21 22 23 24 25 26 27 28 29 30 31 32 33 34 35 36 37 38 39 40 41 42 43 44 45 46 47 48 49 50
000
SXUS55 KMSO 171804
OSOMSO
MONTANA AWOS SUMMARY
NATIONAL WEATHER SERVICE MISSOULA MT
1103 AM MST TUE JAN 17 2017

Montana AWOS Reports

LAUREL      |K6S8 171755Z AUTO 19023G28KT 40SM 01/M10 A2990 RMK AO1 T00061099
TWIN BRIDGES|K7S1 171755Z AUTO 13005KT 40SM M08/M16 A3007 RMK AO1 T10771160
EKALAKA     |K97M 171755Z AUTO 21014G21KT 40SM 02/M13 A2985 RMK AO1 T00171132
SCOBEY      |K9S2 171755Z AUTO 00000KT 40SM M01/M11 A2969 RMK AO1 T10051105
PLAINS      |KS34 171755Z AUTO 00000KT 15SM M10/M14 A3012 RMK AO1 T10991138




USA.gov is the U.S. government's official web portal to all federal, state and local government web resources and services.